sensor_id;sensor_type;location;lat;lon;timestamp;pressure;altitude;pressure_sealevel;temperature;humidity
52935;BME280;38802;50.198;19.796;2023-02-10T00:01:13;97700.52;;;-5.28;66.39
52935;BME280;38802;50.198;19.796;2023-02-10T00:03:40;97705.09;;;-5.27;66.48
52935;BME280;38802;50.198;19.796;2023-02-10T00:06:08;97706.29;;;-5.25;66.92
52935;BME280;38802;50.198;19.796;2023-02-10T00:08:37;97708.69;;;-5.21;66.52
52935;BME280;38802;50.198;19.796;2023-02-10T00:11:07;97703.97;;;-5.18;66.59
52935;BME280;38802;50.198;19.796;2023-02-10T00:13:34;97703.13;;;-5.14;67.09
52935;BME280;38802;50.198;19.796;2023-02-10T00:16:01;97702.63;;;-5.11;67.14
52935;BME280;38802;50.198;19.796;2023-02-10T00:18:29;97704.66;;;-5.12;67.04
52935;BME280;38802;50.198;19.796;2023-02-10T00:20:56;97706.19;;;-5.08;66.97
52935;BME280;38802;50.198;19.796;2023-02-10T00:23:23;97701.95;;;-5.08;67.00
52935;BME280;38802;50.198;19.796;2023-02-10T00:25:50;97700.42;;;-5.08;67.10
52935;BME280;38802;50.198;19.796;2023-02-10T00:28:16;97702.80;;;-5.08;67.14
52935;BME280;38802;50.198;19.796;2023-02-10T00:30:43;97705.85;;;-5.08;67.27
52935;BME280;38802;50.198;19.796;2023-02-10T00:33:10;97698.56;;;-5.08;67.22
52935;BME280;38802;50.198;19.796;2023-02-10T00:35:38;97703.80;;;-5.10;67.18
52935;BME280;38802;50.198;19.796;2023-02-10T00:38:04;97705.52;;;-5.10;67.19
52935;BME280;38802;50.198;19.796;2023-02-10T00:40:31;97700.41;;;-5.11;67.18
52935;BME280;38802;50.198;19.796;2023-02-10T00:42:58;97701.60;;;-5.12;67.18
52935;BME280;38802;50.198;19.796;2023-02-10T00:45:24;97698.21;;;-5.13;67.42
52935;BME280;38802;50.198;19.796;2023-02-10T00:47:51;97695.84;;;-5.14;67.51
52935;BME280;38802;50.198;19.796;2023-02-10T00:50:18;97692.62;;;-5.16;67.52
52935;BME280;38802;50.198;19.796;2023-02-10T01:02:18;97685.34;;;-5.12;67.66
52935;BME280;38802;50.198;19.796;2023-02-10T01:04:45;97686.36;;;-5.11;67.64
52935;BME280;38802;50.198;19.796;2023-02-10T01:07:12;97685.34;;;-5.12;67.88
52935;BME280;38802;50.198;19.796;2023-02-10T01:09:39;97679.75;;;-5.12;67.68
52935;BME280;38802;50.198;19.796;2023-02-10T01:12:07;97676.86;;;-5.13;67.45
52935;BME280;38802;50.198;19.796;2023-02-10T01:14:35;97676.36;;;-5.14;67.74
52935;BME280;38802;50.198;19.796;2023-02-10T01:17:02;97676.52;;;-5.16;67.76
52935;BME280;38802;50.198;19.796;2023-02-10T01:19:28;97674.14;;;-5.19;67.62
52935;BME280;38802;50.198;19.796;2023-02-10T01:21:55;97675.83;;;-5.20;67.71
52935;BME280;38802;50.198;19.796;2023-02-10T01:24:22;97678.20;;;-5.20;67.85
52935;BME280;38802;50.198;19.796;2023-02-10T01:26:48;97675.47;;;-5.21;67.86
52935;BME280;38802;50.198;19.796;2023-02-10T01:29:16;97675.48;;;-5.20;68.15
52935;BME280;38802;50.198;19.796;2023-02-10T01:31:42;97674.30;;;-5.20;68.00
52935;BME280;38802;50.198;19.796;2023-02-10T01:34:09;97674.79;;;-5.21;67.90
52935;BME280;38802;50.198;19.796;2023-02-10T01:36:36;97667.49;;;-5.23;68.40
52935;BME280;38802;50.198;19.796;2023-02-10T01:39:03;97659.87;;;-5.22;68.28
52935;BME280;38802;50.198;19.796;2023-02-10T01:41:30;97657.17;;;-5.21;68.20
52935;BME280;38802;50.198;19.796;2023-02-10T01:46:32;97650.42;;;-5.19;68.33
52935;BME280;38802;50.198;19.796;2023-02-10T01:49:07;97657.55;;;-5.19;68.37
52935;BME280;38802;50.198;19.796;2023-02-10T01:51:38;97662.11;;;-5.19;68.29
52935;BME280;38802;50.198;19.796;2023-02-10T01:54:09;97662.95;;;-5.18;68.44
52935;BME280;38802;50.198;19.796;2023-02-10T01:56:40;97662.45;;;-5.19;68.16
52935;BME280;38802;50.198;19.796;2023-02-10T01:59:07;97661.61;;;-5.19;68.30
52935;BME280;38802;50.198;19.796;2023-02-10T02:01:35;97660.93;;;-5.18;68.52
52935;BME280;38802;50.198;19.796;2023-02-10T02:04:02;97655.67;;;-5.19;68.03
52935;BME280;38802;50.198;19.796;2023-02-10T02:06:30;97659.58;;;-5.17;68.57
52935;BME280;38802;50.198;19.796;2023-02-10T02:08:58;97653.81;;;-5.17;68.36
52935;BME280;38802;50.198;19.796;2023-02-10T02:17:02;97654.48;;;-5.19;68.69
52935;BME280;38802;50.198;19.796;2023-02-10T02:28:37;97650.89;;;-5.24;68.86
52935;BME280;38802;50.198;19.796;2023-02-10T02:37:08;97649.53;;;-5.22;68.86
52935;BME280;38802;50.198;19.796;2023-02-10T02:39:36;97646.85;;;-5.20;68.89
52935;BME280;38802;50.198;19.796;2023-02-10T02:42:23;97644.66;;;-5.20;68.72
52935;BME280;38802;50.198;19.796;2023-02-10T02:45:08;97646.98;;;-5.23;68.61
52935;BME280;38802;50.198;19.796;2023-02-10T03:00:58;97649.86;;;-5.31;68.95
52935;BME280;38802;50.198;19.796;2023-02-10T03:03:35;97645.45;;;-5.34;68.70
52935;BME280;38802;50.198;19.796;2023-02-10T03:06:03;97650.86;;;-5.38;68.85
52935;BME280;38802;50.198;19.796;2023-02-10T03:08:33;97651.70;;;-5.39;68.84
52935;BME280;38802;50.198;19.796;2023-02-10T03:11:00;97650.86;;;-5.39;69.10
52935;BME280;38802;50.198;19.796;2023-02-10T03:13:27;97646.79;;;-5.39;69.21
52935;BME280;38802;50.198;19.796;2023-02-10T03:15:53;97642.39;;;-5.39;69.27
52935;BME280;38802;50.198;19.796;2023-02-10T03:18:20;97639.86;;;-5.36;69.23
52935;BME280;38802;50.198;19.796;2023-02-10T03:20:48;97647.98;;;-5.34;69.21
52935;BME280;38802;50.198;19.796;2023-02-10T03:23:14;97657.65;;;-5.33;69.26
52935;BME280;38802;50.198;19.796;2023-02-10T03:25:44;97656.63;;;-5.32;69.14
52935;BME280;38802;50.198;19.796;2023-02-10T03:28:11;97651.55;;;-5.32;69.11
52935;BME280;38802;50.198;19.796;2023-02-10T03:30:40;97650.37;;;-5.29;69.50
52935;BME280;38802;50.198;19.796;2023-02-10T03:33:13;97646.14;;;-5.27;69.23
52935;BME280;38802;50.198;19.796;2023-02-10T03:35:42;97641.39;;;-5.26;69.20
52935;BME280;38802;50.198;19.796;2023-02-10T03:38:09;97638.52;;;-5.25;69.26
52935;BME280;38802;50.198;19.796;2023-02-10T03:40:36;97636.99;;;-5.27;69.35
52935;BME280;38802;50.198;19.796;2023-02-10T03:43:03;97642.58;;;-5.28;69.43
52935;BME280;38802;50.198;19.796;2023-02-10T03:45:30;97644.78;;;-5.28;69.52
52935;BME280;38802;50.198;19.796;2023-02-10T03:47:56;97651.05;;;-5.28;69.40
52935;BME280;38802;50.198;19.796;2023-02-10T03:50:25;97655.80;;;-5.28;69.53
52935;BME280;38802;50.198;19.796;2023-02-10T03:52:52;97655.80;;;-5.28;69.76
52935;BME280;38802;50.198;19.796;2023-02-10T03:55:19;97655.80;;;-5.25;69.44
52935;BME280;38802;50.198;19.796;2023-02-10T03:57:46;97655.13;;;-5.22;69.78
52935;BME280;38802;50.198;19.796;2023-02-10T04:00:13;97654.30;;;-5.21;69.81
52935;BME280;38802;50.198;19.796;2023-02-10T04:02:40;97653.80;;;-5.20;69.67
52935;BME280;38802;50.198;19.796;2023-02-10T04:05:07;97650.92;;;-5.17;69.62
52935;BME280;38802;50.198;19.796;2023-02-10T04:07:34;97650.59;;;-5.17;69.67
52935;BME280;38802;50.198;19.796;2023-02-10T04:10:01;97653.48;;;-5.16;69.56
52935;BME280;38802;50.198;19.796;2023-02-10T04:12:28;97652.48;;;-5.14;69.94
52935;BME280;38802;50.198;19.796;2023-02-10T04:14:55;97652.13;;;-5.14;69.64
52935;BME280;38802;50.198;19.796;2023-02-10T04:17:21;97656.02;;;-5.15;69.73
52935;BME280;38802;50.198;19.796;2023-02-10T04:19:48;97659.08;;;-5.13;70.02
52935;BME280;38802;50.198;19.796;2023-02-10T04:22:15;97661.11;;;-5.14;69.72
52935;BME280;38802;50.198;19.796;2023-02-10T04:24:42;97667.03;;;-5.14;69.78
52935;BME280;38802;50.198;19.796;2023-02-10T04:27:09;97664.84;;;-5.12;69.59
52935;BME280;38802;50.198;19.796;2023-02-10T04:29:35;97673.48;;;-5.11;69.57
52935;BME280;38802;50.198;19.796;2023-02-10T04:32:07;97676.69;;;-5.13;69.65
52935;BME280;38802;50.198;19.796;2023-02-10T04:34:34;97674.31;;;-5.16;69.86
52935;BME280;38802;50.198;19.796;2023-02-10T04:37:02;97675.00;;;-5.18;69.65
52935;BME280;38802;50.198;19.796;2023-02-10T04:39:28;97674.63;;;-5.21;69.79
52935;BME280;38802;50.198;19.796;2023-02-10T04:41:55;97674.27;;;-5.23;69.46
52935;BME280;38802;50.198;19.796;2023-02-10T04:44:21;97672.40;;;-5.26;69.85
52935;BME280;38802;50.198;19.796;2023-02-10T04:46:48;97674.60;;;-5.29;69.61
52935;BME280;38802;50.198;19.796;2023-02-10T04:49:16;97674.59;;;-5.30;69.60
52935;BME280;38802;50.198;19.796;2023-02-10T04:51:44;97671.54;;;-5.33;69.80
52935;BME280;38802;50.198;19.796;2023-02-10T04:54:11;97676.60;;;-5.37;69.78
52935;BME280;38802;50.198;19.796;2023-02-10T04:56:38;97676.44;;;-5.38;69.80
52935;BME280;38802;50.198;19.796;2023-02-10T04:59:04;97681.67;;;-5.41;69.56
52935;BME280;38802;50.198;19.796;2023-02-10T05:01:31;97674.73;;;-5.42;69.83
52935;BME280;38802;50.198;19.796;2023-02-10T05:03:58;97679.80;;;-5.45;69.65
52935;BME280;38802;50.198;19.796;2023-02-10T05:06:25;97681.15;;;-5.46;69.80
52935;BME280;38802;50.198;19.796;2023-02-10T05:08:52;97679.62;;;-5.49;69.67
52935;BME280;38802;50.198;19.796;2023-02-10T05:11:19;97682.99;;;-5.51;69.77
52935;BME280;38802;50.198;19.796;2023-02-10T05:13:45;97685.19;;;-5.52;70.06
52935;BME280;38802;50.198;19.796;2023-02-10T05:16:14;97687.73;;;-5.53;69.76
52935;BME280;38802;50.198;19.796;2023-02-10T05:18:41;97690.27;;;-5.55;69.86
52935;BME280;38802;50.198;19.796;2023-02-10T05:21:09;97690.59;;;-5.57;69.99
52935;BME280;38802;50.198;19.796;2023-02-10T05:23:37;97694.98;;;-5.58;70.30
52935;BME280;38802;50.198;19.796;2023-02-10T05:26:04;97694.44;;;-5.64;70.25
52935;BME280;38802;50.198;19.796;2023-02-10T05:28:31;97692.58;;;-5.64;69.88
52935;BME280;38802;50.198;19.796;2023-02-10T05:31:01;97695.95;;;-5.65;70.22
52935;BME280;38802;50.198;19.796;2023-02-10T05:33:30;97693.73;;;-5.68;70.20
52935;BME280;38802;50.198;19.796;2023-02-10T05:35:57;97698.48;;;-5.69;70.33
52935;BME280;38802;50.198;19.796;2023-02-10T05:38:23;97700.67;;;-5.68;70.27
52935;BME280;38802;50.198;19.796;2023-02-10T05:40:50;97704.90;;;-5.69;70.35
52935;BME280;38802;50.198;19.796;2023-02-10T05:43:17;97705.24;;;-5.67;70.34
52935;BME280;38802;50.198;19.796;2023-02-10T05:45:45;97709.14;;;-5.66;70.28
52935;BME280;38802;50.198;19.796;2023-02-10T05:48:14;97713.36;;;-5.69;70.28
52935;BME280;38802;50.198;19.796;2023-02-10T05:50:40;97711.66;;;-5.71;70.44
52935;BME280;38802;50.198;19.796;2023-02-10T05:53:13;97715.05;;;-5.72;70.60
52935;BME280;38802;50.198;19.796;2023-02-10T05:55:40;97710.81;;;-5.73;70.30
52935;BME280;38802;50.198;19.796;2023-02-10T05:58:07;97710.63;;;-5.77;70.37
52935;BME280;38802;50.198;19.796;2023-02-10T06:00:33;97719.43;;;-5.75;70.26
52935;BME280;38802;50.198;19.796;2023-02-10T06:03:00;97720.13;;;-5.73;70.74
52935;BME280;38802;50.198;19.796;2023-02-10T06:05:27;97724.52;;;-5.74;70.54
52935;BME280;38802;50.198;19.796;2023-02-10T06:07:53;97723.14;;;-5.77;70.64
52935;BME280;38802;50.198;19.796;2023-02-10T06:10:22;97725.17;;;-5.77;70.69
52935;BME280;38802;50.198;19.796;2023-02-10T06:12:49;97727.70;;;-5.81;70.79
52935;BME280;38802;50.198;19.796;2023-02-10T06:15:16;97732.79;;;-5.78;70.74
52935;BME280;38802;50.198;19.796;2023-02-10T06:17:43;97737.35;;;-5.79;70.78
52935;BME280;38802;50.198;19.796;2023-02-10T06:20:10;97733.80;;;-5.79;70.77
52935;BME280;38802;50.198;19.796;2023-02-10T06:22:36;97732.78;;;-5.79;70.86
52935;BME280;38802;50.198;19.796;2023-02-10T06:25:03;97732.79;;;-5.78;70.88
52935;BME280;38802;50.198;19.796;2023-02-10T06:27:30;97728.39;;;-5.77;70.88
52935;BME280;38802;50.198;19.796;2023-02-10T06:29:56;97723.16;;;-5.74;71.12
52935;BME280;38802;50.198;19.796;2023-02-10T06:32:23;97729.27;;;-5.73;70.86
52935;BME280;38802;50.198;19.796;2023-02-10T06:34:50;97722.67;;;-5.70;71.07
52935;BME280;38802;50.198;19.796;2023-02-10T06:37:16;97726.23;;;-5.68;70.93
52935;BME280;38802;50.198;19.796;2023-02-10T06:39:43;97727.63;;;-5.63;71.12
52935;BME280;38802;50.198;19.796;2023-02-10T06:42:10;97736.64;;;-5.59;71.27
52935;BME280;38802;50.198;19.796;2023-02-10T06:44:36;97745.97;;;-5.54;71.24
52935;BME280;38802;50.198;19.796;2023-02-10T06:47:03;97753.45;;;-5.50;71.44
52935;BME280;38802;50.198;19.796;2023-02-10T06:49:29;97751.26;;;-5.47;71.08
52935;BME280;38802;50.198;19.796;2023-02-10T06:51:56;97747.73;;;-5.40;71.25
52935;BME280;38802;50.198;19.796;2023-02-10T06:54:23;97751.46;;;-5.37;71.01
52935;BME280;38802;50.198;19.796;2023-02-10T06:56:50;97755.55;;;-5.31;70.96
52935;BME280;38802;50.198;19.796;2023-02-10T06:59:17;97748.48;;;-5.23;71.00
52935;BME280;38802;50.198;19.796;2023-02-10T07:01:43;97746.83;;;-5.18;70.96
52935;BME280;38802;50.198;19.796;2023-02-10T07:04:10;97747.02;;;-5.12;70.55
52935;BME280;38802;50.198;19.796;2023-02-10T07:06:38;97744.65;;;-5.09;70.83
52935;BME280;38802;50.198;19.796;2023-02-10T07:09:05;97749.07;;;-5.02;70.59
52935;BME280;38802;50.198;19.796;2023-02-10T07:11:33;97752.65;;;-4.96;70.68
52935;BME280;38802;50.198;19.796;2023-02-10T07:13:59;97748.26;;;-4.90;70.48
52935;BME280;38802;50.198;19.796;2023-02-10T07:16:26;97747.08;;;-4.84;70.74
52935;BME280;38802;50.198;19.796;2023-02-10T07:18:54;97748.46;;;-4.78;70.71
52935;BME280;38802;50.198;19.796;2023-02-10T07:21:20;97740.52;;;-4.70;70.29
52935;BME280;38802;50.198;19.796;2023-02-10T07:23:47;97734.08;;;-4.66;70.49
52935;BME280;38802;50.198;19.796;2023-02-10T07:26:14;97734.09;;;-4.58;70.43
52935;BME280;38802;50.198;19.796;2023-02-10T07:28:44;97724.27;;;-4.52;70.11
52935;BME280;38802;50.198;19.796;2023-02-10T07:31:11;97724.09;;;-4.48;70.07
52935;BME280;38802;50.198;19.796;2023-02-10T07:33:38;97725.45;;;-4.42;70.03
52935;BME280;38802;50.198;19.796;2023-02-10T07:36:06;97731.55;;;-4.37;69.96
52935;BME280;38802;50.198;19.796;2023-02-10T07:38:34;97736.33;;;-4.33;70.28
52935;BME280;38802;50.198;19.796;2023-02-10T07:41:01;97744.14;;;-4.24;69.41
52935;BME280;38802;50.198;19.796;2023-02-10T07:43:28;97745.16;;;-4.19;69.94
52935;BME280;38802;50.198;19.796;2023-02-10T07:46:00;97745.83;;;-4.12;69.40
52935;BME280;38802;50.198;19.796;2023-02-10T07:48:27;97745.99;;;-4.08;68.86
52935;BME280;38802;50.198;19.796;2023-02-10T07:50:54;97748.54;;;-4.01;69.29
52935;BME280;38802;50.198;19.796;2023-02-10T07:53:21;97750.21;;;-3.95;68.85
52935;BME280;38802;50.198;19.796;2023-02-10T07:55:48;97750.75;;;-3.90;68.72
52935;BME280;38802;50.198;19.796;2023-02-10T07:58:15;97750.23;;;-3.86;68.85
52935;BME280;38802;50.198;19.796;2023-02-10T08:00:42;97747.00;;;-3.79;68.34
52935;BME280;38802;50.198;19.796;2023-02-10T08:03:15;97757.17;;;-3.76;68.17
52935;BME280;38802;50.198;19.796;2023-02-10T08:05:42;97754.96;;;-3.73;68.70
52935;BME280;38802;50.198;19.796;2023-02-10T08:08:09;97762.42;;;-3.66;68.55
52935;BME280;38802;50.198;19.796;2023-02-10T08:10:40;97756.81;;;-3.63;68.37
52935;BME280;38802;50.198;19.796;2023-02-10T08:13:07;97764.60;;;-3.55;67.94
52935;BME280;38802;50.198;19.796;2023-02-10T08:15:35;97761.02;;;-3.52;67.91
52935;BME280;38802;50.198;19.796;2023-02-10T08:18:01;97767.48;;;-3.46;68.35
52935;BME280;38802;50.198;19.796;2023-02-10T08:20:28;97768.16;;;-3.40;68.23
52935;BME280;38802;50.198;19.796;2023-02-10T08:22:56;97770.17;;;-3.32;67.91
52935;BME280;38802;50.198;19.796;2023-02-10T08:25:23;97772.88;;;-3.28;68.08
52935;BME280;38802;50.198;19.796;2023-02-10T08:27:50;97778.97;;;-3.20;67.87
52935;BME280;38802;50.198;19.796;2023-02-10T08:30:18;97779.95;;;-3.10;67.72
52935;BME280;38802;50.198;19.796;2023-02-10T08:32:45;97777.71;;;-3.05;68.09
52935;BME280;38802;50.198;19.796;2023-02-10T08:35:15;97774.13;;;-2.95;67.96
52935;BME280;38802;50.198;19.796;2023-02-10T08:37:42;97772.56;;;-2.89;67.70
52935;BME280;38802;50.198;19.796;2023-02-10T08:40:09;97773.88;;;-2.80;67.41
52935;BME280;38802;50.198;19.796;2023-02-10T08:42:36;97772.32;;;-2.75;67.86
52935;BME280;38802;50.198;19.796;2023-02-10T08:45:03;97764.11;;;-2.68;67.64
52935;BME280;38802;50.198;19.796;2023-02-10T08:47:29;97768.17;;;-2.65;67.34
52935;BME280;38802;50.198;19.796;2023-02-10T08:49:56;97772.59;;;-2.59;67.31
52935;BME280;38802;50.198;19.796;2023-02-10T08:52:23;97778.18;;;-2.54;66.97
52935;BME280;38802;50.198;19.796;2023-02-10T08:54:50;97778.34;;;-2.53;67.06
52935;BME280;38802;50.198;19.796;2023-02-10T08:57:16;97774.75;;;-2.51;67.04
52935;BME280;38802;50.198;19.796;2023-02-10T08:59:43;97775.93;;;-2.49;67.01
52935;BME280;38802;50.198;19.796;2023-02-10T09:02:13;97776.29;;;-2.51;67.02
52935;BME280;38802;50.198;19.796;2023-02-10T09:04:40;97775.44;;;-2.52;67.09
52935;BME280;38802;50.198;19.796;2023-02-10T09:07:08;97776.28;;;-2.51;67.19
52935;BME280;38802;50.198;19.796;2023-02-10T09:09:41;97777.59;;;-2.43;67.35
52935;BME280;38802;50.198;19.796;2023-02-10T09:12:09;97775.33;;;-2.36;66.95
52935;BME280;38802;50.198;19.796;2023-02-10T09:14:40;97786.02;;;-2.31;66.97
52935;BME280;38802;50.198;19.796;2023-02-10T09:17:08;97785.30;;;-2.24;66.97
52935;BME280;38802;50.198;19.796;2023-02-10T09:19:35;97789.19;;;-2.23;66.38
52935;BME280;38802;50.198;19.796;2023-02-10T09:22:04;97789.21;;;-2.25;66.28
52935;BME280;38802;50.198;19.796;2023-02-10T09:24:32;97794.33;;;-2.28;66.30
52935;BME280;38802;50.198;19.796;2023-02-10T09:26:59;97796.55;;;-2.28;66.63
52935;BME280;38802;50.198;19.796;2023-02-10T09:29:26;97791.95;;;-2.27;66.51
52935;BME280;38802;50.198;19.796;2023-02-10T09:31:53;97785.45;;;-2.24;66.36
52935;BME280;38802;50.198;19.796;2023-02-10T09:34:19;97785.94;;;-2.21;66.56
52935;BME280;38802;50.198;19.796;2023-02-10T09:36:46;97783.53;;;-2.12;66.67
52935;BME280;38802;50.198;19.796;2023-02-10T09:39:13;97786.69;;;-2.04;66.46
52935;BME280;38802;50.198;19.796;2023-02-10T09:41:45;97785.42;;;-1.95;66.98
52935;BME280;38802;50.198;19.796;2023-02-10T09:44:19;97786.89;;;-1.88;66.83
52935;BME280;38802;50.198;19.796;2023-02-10T09:47:01;97787.33;;;-1.79;66.43
52935;BME280;38802;50.198;19.796;2023-02-10T09:49:47;97783.71;;;-1.73;66.33
52935;BME280;38802;50.198;19.796;2023-02-10T09:54:41;97786.39;;;-1.66;66.52
52935;BME280;38802;50.198;19.796;2023-02-10T09:57:13;97789.39;;;-1.60;65.87
52935;BME280;38802;50.198;19.796;2023-02-10T10:10:46;97765.96;;;-1.36;66.28
52935;BME280;38802;50.198;19.796;2023-02-10T10:13:20;97766.77;;;-1.30;65.93
52935;BME280;38802;50.198;19.796;2023-02-10T10:16:13;97768.09;;;-1.25;65.89
52935;BME280;38802;50.198;19.796;2023-02-10T10:19:20;97771.57;;;-1.17;65.73
52935;BME280;38802;50.198;19.796;2023-02-10T10:27:35;97769.35;;;-0.74;65.68
52935;BME280;38802;50.198;19.796;2023-02-10T10:30:16;97760.11;;;-0.61;65.63
52935;BME280;38802;50.198;19.796;2023-02-10T10:32:47;97761.80;;;-0.47;66.02
52935;BME280;38802;50.198;19.796;2023-02-10T10:35:21;97754.81;;;-0.35;65.69
52935;BME280;38802;50.198;19.796;2023-02-10T10:37:52;97753.87;;;-0.29;65.37
52935;BME280;38802;50.198;19.796;2023-02-10T10:40:25;97753.98;;;-0.25;65.62
52935;BME280;38802;50.198;19.796;2023-02-10T10:42:59;97755.95;;;-0.20;65.06
52935;BME280;38802;50.198;19.796;2023-02-10T10:45:35;97751.11;;;-0.17;64.80
52935;BME280;38802;50.198;19.796;2023-02-10T10:48:29;97743.01;;;-0.12;65.24
52935;BME280;38802;50.198;19.796;2023-02-10T10:51:03;97742.02;;;-0.05;65.54
52935;BME280;38802;50.198;19.796;2023-02-10T10:56:01;97734.18;;;0.07;64.66
52935;BME280;38802;50.198;19.796;2023-02-10T10:58:35;97732.80;;;0.07;64.24
52935;BME280;38802;50.198;19.796;2023-02-10T11:01:05;97732.28;;;0.08;64.54
52935;BME280;38802;50.198;19.796;2023-02-10T11:03:33;97734.20;;;0.15;65.39
52935;BME280;38802;50.198;19.796;2023-02-10T11:06:14;97739.51;;;0.24;64.66
52935;BME280;38802;50.198;19.796;2023-02-10T11:08:53;97746.20;;;0.33;64.52
52935;BME280;38802;50.198;19.796;2023-02-10T11:11:32;97754.13;;;0.39;64.39
52935;BME280;38802;50.198;19.796;2023-02-10T11:14:16;97755.44;;;0.42;64.01
52935;BME280;38802;50.198;19.796;2023-02-10T11:16:51;97752.02;;;0.41;63.88
52935;BME280;38802;50.198;19.796;2023-02-10T11:19:26;97743.49;;;0.40;63.78
52935;BME280;38802;50.198;19.796;2023-02-10T11:22:14;97746.36;;;0.43;63.65
52935;BME280;38802;50.198;19.796;2023-02-10T11:24:53;97741.69;;;0.47;63.38
52935;BME280;38802;50.198;19.796;2023-02-10T11:27:22;97736.23;;;0.47;63.63
52935;BME280;38802;50.198;19.796;2023-02-10T11:29:59;97733.26;;;0.50;63.36
52935;BME280;38802;50.198;19.796;2023-02-10T11:32:33;97731.40;;;0.49;63.64
52935;BME280;38802;50.198;19.796;2023-02-10T11:35:03;97730.56;;;0.48;63.64
52935;BME280;38802;50.198;19.796;2023-02-10T11:37:38;97728.54;;;0.46;63.25
52935;BME280;38802;50.198;19.796;2023-02-10T11:40:30;97729.85;;;0.49;63.47
52935;BME280;38802;50.198;19.796;2023-02-10T11:43:00;97740.50;;;0.55;64.08
52935;BME280;38802;50.198;19.796;2023-02-10T11:45:31;97743.27;;;0.63;63.74
52935;BME280;38802;50.198;19.796;2023-02-10T11:48:05;97734.17;;;0.65;63.75
52935;BME280;38802;50.198;19.796;2023-02-10T11:50:40;97732.70;;;0.70;63.40
52935;BME280;38802;50.198;19.796;2023-02-10T11:53:30;97738.55;;;0.68;63.68
52935;BME280;38802;50.198;19.796;2023-02-10T11:56:13;97736.46;;;0.70;63.38
52935;BME280;38802;50.198;19.796;2023-02-10T11:59:02;97730.58;;;0.65;63.15
52935;BME280;38802;50.198;19.796;2023-02-10T12:07:34;97733.38;;;0.52;63.43
52935;BME280;38802;50.198;19.796;2023-02-10T12:15:38;97717.01;;;0.50;63.52
52935;BME280;38802;50.198;19.796;2023-02-10T12:18:43;97718.24;;;0.48;63.31
52935;BME280;38802;50.198;19.796;2023-02-10T12:24:24;97732.20;;;0.41;63.27
52935;BME280;38802;50.198;19.796;2023-02-10T12:27:22;97729.51;;;0.39;63.73
52935;BME280;38802;50.198;19.796;2023-02-10T12:30:20;97725.16;;;0.43;64.01
52935;BME280;38802;50.198;19.796;2023-02-10T12:33:02;97725.30;;;0.46;63.64
52935;BME280;38802;50.198;19.796;2023-02-10T12:35:55;97727.39;;;0.44;64.03
52935;BME280;38802;50.198;19.796;2023-02-10T12:41:37;97733.41;;;0.50;64.08
52935;BME280;38802;50.198;19.796;2023-02-10T12:44:27;97734.80;;;0.49;64.23
52935;BME280;38802;50.198;19.796;2023-02-10T12:52:44;97744.02;;;0.59;64.06
52935;BME280;38802;50.198;19.796;2023-02-10T12:55:23;97748.40;;;0.62;64.47
52935;BME280;38802;50.198;19.796;2023-02-10T12:57:55;97748.97;;;0.60;64.29
52935;BME280;38802;50.198;19.796;2023-02-10T13:00:33;97745.02;;;0.51;64.04
52935;BME280;38802;50.198;19.796;2023-02-10T13:03:15;97738.45;;;0.46;64.56
52935;BME280;38802;50.198;19.796;2023-02-10T13:05:52;97731.58;;;0.48;64.44
52935;BME280;38802;50.198;19.796;2023-02-10T13:08:30;97728.33;;;0.48;64.72
52935;BME280;38802;50.198;19.796;2023-02-10T13:11:14;97728.77;;;0.51;64.78
52935;BME280;38802;50.198;19.796;2023-02-10T13:13:47;97722.73;;;0.55;64.84
52935;BME280;38802;50.198;19.796;2023-02-10T13:16:22;97708.83;;;0.57;64.60
52935;BME280;38802;50.198;19.796;2023-02-10T13:19:23;97704.64;;;0.61;64.71
52935;BME280;38802;50.198;19.796;2023-02-10T13:22:13;97712.94;;;0.57;64.88
52935;BME280;38802;50.198;19.796;2023-02-10T13:35:20;97721.62;;;0.51;65.45
52935;BME280;38802;50.198;19.796;2023-02-10T13:37:52;97711.91;;;0.48;65.43
52935;BME280;38802;50.198;19.796;2023-02-10T13:40:24;97713.45;;;0.48;65.41
52935;BME280;38802;50.198;19.796;2023-02-10T13:42:55;97721.45;;;0.50;65.30
52935;BME280;38802;50.198;19.796;2023-02-10T13:45:32;97722.37;;;0.47;65.57
52935;BME280;38802;50.198;19.796;2023-02-10T13:48:04;97729.42;;;0.45;65.55
52935;BME280;38802;50.198;19.796;2023-02-10T13:50:48;97733.23;;;0.41;65.34
52935;BME280;38802;50.198;19.796;2023-02-10T13:59:00;97736.88;;;0.19;65.82
52935;BME280;38802;50.198;19.796;2023-02-10T14:01:46;97740.99;;;0.08;65.86
52935;BME280;38802;50.198;19.796;2023-02-10T14:06:51;97749.88;;;-0.04;66.12
52935;BME280;38802;50.198;19.796;2023-02-10T14:11:58;97750.22;;;-0.15;66.20
52935;BME280;38802;50.198;19.796;2023-02-10T14:19:41;97753.59;;;-0.22;66.59
52935;BME280;38802;50.198;19.796;2023-02-10T14:24:50;97762.74;;;-0.28;66.47
52935;BME280;38802;50.198;19.796;2023-02-10T14:27:19;97768.36;;;-0.27;66.79
52935;BME280;38802;50.198;19.796;2023-02-10T14:30:24;97764.06;;;-0.26;66.90
52935;BME280;38802;50.198;19.796;2023-02-10T14:32:54;97774.77;;;-0.34;66.92
52935;BME280;38802;50.198;19.796;2023-02-10T14:35:26;97781.20;;;-0.43;66.93
52935;BME280;38802;50.198;19.796;2023-02-10T14:37:58;97780.05;;;-0.45;67.37
52935;BME280;38802;50.198;19.796;2023-02-10T14:40:29;97788.66;;;-0.51;67.24
52935;BME280;38802;50.198;19.796;2023-02-10T14:43:00;97792.66;;;-0.57;67.21
52935;BME280;38802;50.198;19.796;2023-02-10T14:45:29;97800.11;;;-0.65;67.07
52935;BME280;38802;50.198;19.796;2023-02-10T14:47:59;97801.33;;;-0.66;67.61
52935;BME280;38802;50.198;19.796;2023-02-10T14:50:35;97798.09;;;-0.67;67.75
52935;BME280;38802;50.198;19.796;2023-02-10T14:53:04;97802.55;;;-0.69;67.87
52935;BME280;38802;50.198;19.796;2023-02-10T14:55:37;97801.70;;;-0.69;67.38
52935;BME280;38802;50.198;19.796;2023-02-10T15:00:37;97800.86;;;-0.70;67.54
52935;BME280;38802;50.198;19.796;2023-02-10T15:03:11;97811.12;;;-0.71;68.11
52935;BME280;38802;50.198;19.796;2023-02-10T15:05:48;97810.39;;;-0.67;67.98
52935;BME280;38802;50.198;19.796;2023-02-10T15:08:25;97805.40;;;-0.65;68.10
52935;BME280;38802;50.198;19.796;2023-02-10T15:10:57;97806.91;;;-0.63;67.97
52935;BME280;38802;50.198;19.796;2023-02-10T15:13:33;97806.88;;;-0.60;68.24